sensor_id;sensor_type;location;lat;lon;timestamp;pressure;altitude;pressure_sealevel;temperature;humidity
38191;BME280;25191;47.510;19.124;2023-03-19T00:09:18;100729.56;;;21.87;44.29
38191;BME280;25191;47.510;19.124;2023-03-19T00:19:18;100729.66;;;21.86;44.10
38191;BME280;25191;47.510;19.124;2023-03-19T00:29:19;100717.56;;;21.83;43.94
38191;BME280;25191;47.510;19.124;2023-03-19T00:39:20;100707.97;;;21.82;44.15
38191;BME280;25191;47.510;19.124;2023-03-19T00:49:21;100702.94;;;21.79;43.84
38191;BME280;25191;47.510;19.124;2023-03-19T00:59:27;100700.41;;;21.78;44.06
38191;BME280;25191;47.510;19.124;2023-03-19T01:09:28;100693.81;;;21.72;44.01
38191;BME280;25191;47.510;19.124;2023-03-19T01:19:28;100706.97;;;21.72;43.94
38191;BME280;25191;47.510;19.124;2023-03-19T01:29:29;100707.09;;;21.70;44.22
38191;BME280;25191;47.510;19.124;2023-03-19T01:39:30;100703.72;;;21.68;44.45
38191;BME280;25191;47.510;19.124;2023-03-19T01:49:30;100703.84;;;21.67;44.46
38191;BME280;25191;47.510;19.124;2023-03-19T01:59:34;100707.56;;;21.64;44.18
38191;BME280;25191;47.510;19.124;2023-03-19T02:09:36;100700.69;;;21.62;44.97
38191;BME280;25191;47.510;19.124;2023-03-19T02:19:42;100699.88;;;21.61;44.35
38191;BME280;25191;47.510;19.124;2023-03-19T02:29:49;100701.31;;;21.65;44.91
38191;BME280;25191;47.510;19.124;2023-03-19T02:49:59;100696.72;;;21.56;44.48
38191;BME280;25191;47.510;19.124;2023-03-19T03:00:00;100684.50;;;21.55;44.58
38191;BME280;25191;47.510;19.124;2023-03-19T03:10:01;100687.25;;;21.53;44.64
38191;BME280;25191;47.510;19.124;2023-03-19T03:20:04;100691.66;;;21.53;44.78
38191;BME280;25191;47.510;19.124;2023-03-19T03:30:06;100690.22;;;21.49;44.49
38191;BME280;25191;47.510;19.124;2023-03-19T03:40:08;100688.66;;;21.46;45.03
38191;BME280;25191;47.510;19.124;2023-03-19T03:50:09;100692.00;;;21.48;44.77
38191;BME280;25191;47.510;19.124;2023-03-19T04:00:13;100689.72;;;21.43;44.74
38191;BME280;25191;47.510;19.124;2023-03-19T04:10:13;100695.00;;;21.43;44.83
38191;BME280;25191;47.510;19.124;2023-03-19T04:20:14;100694.00;;;21.44;44.55
38191;BME280;25191;47.510;19.124;2023-03-19T04:30:17;100686.97;;;21.45;44.91
38191;BME280;25191;47.510;19.124;2023-03-19T04:40:18;100667.44;;;21.48;44.73
38191;BME280;25191;47.510;19.124;2023-03-19T04:50:18;100676.19;;;21.48;44.92
38191;BME280;25191;47.510;19.124;2023-03-19T05:00:19;100689.16;;;21.51;45.00
38191;BME280;25191;47.510;19.124;2023-03-19T05:10:20;100696.81;;;21.54;44.68
38191;BME280;25191;47.510;19.124;2023-03-19T05:20:21;100700.28;;;21.55;44.04
38191;BME280;25191;47.510;19.124;2023-03-19T05:30:22;100705.03;;;21.63;44.12
38191;BME280;25191;47.510;19.124;2023-03-19T05:40:24;100715.09;;;21.69;44.16
38191;BME280;25191;47.510;19.124;2023-03-19T05:50:25;100722.78;;;21.72;43.54
38191;BME280;25191;47.510;19.124;2023-03-19T06:00:26;100724.34;;;21.74;44.09
38191;BME280;25191;47.510;19.124;2023-03-19T06:10:27;100728.44;;;21.79;43.78
38191;BME280;25191;47.510;19.124;2023-03-19T06:20:27;100735.19;;;21.83;44.47
38191;BME280;25191;47.510;19.124;2023-03-19T06:30:28;100732.19;;;21.87;44.25
38191;BME280;25191;47.510;19.124;2023-03-19T06:40:28;100746.94;;;21.90;44.29
38191;BME280;25191;47.510;19.124;2023-03-19T06:50:29;100754.59;;;21.93;44.16
38191;BME280;25191;47.510;19.124;2023-03-19T07:00:29;100757.13;;;21.95;43.85
38191;BME280;25191;47.510;19.124;2023-03-19T07:10:30;100744.69;;;21.97;43.40
38191;BME280;25191;47.510;19.124;2023-03-19T07:20:31;100737.03;;;22.05;43.84
38191;BME280;25191;47.510;19.124;2023-03-19T07:30:31;100730.94;;;22.16;45.34
38191;BME280;25191;47.510;19.124;2023-03-19T07:40:32;100737.31;;;22.25;48.53
38191;BME280;25191;47.510;19.124;2023-03-19T07:50:32;100736.09;;;22.29;48.60
38191;BME280;25191;47.510;19.124;2023-03-19T08:00:33;100726.03;;;22.22;45.86
38191;BME280;25191;47.510;19.124;2023-03-19T08:10:33;100732.47;;;21.23;31.75
38191;BME280;25191;47.510;19.124;2023-03-19T08:20:34;100715.19;;;21.91;41.55
38191;BME280;25191;47.510;19.124;2023-03-19T08:30:35;100717.56;;;21.95;40.44
38191;BME280;25191;47.510;19.124;2023-03-19T08:40:36;100725.16;;;21.99;41.36
38191;BME280;25191;47.510;19.124;2023-03-19T08:50:36;100724.94;;;22.02;42.24
38191;BME280;25191;47.510;19.124;2023-03-19T09:00:37;100716.06;;;22.03;42.47
38191;BME280;25191;47.510;19.124;2023-03-19T09:10:38;100709.72;;;22.06;42.37
38191;BME280;25191;47.510;19.124;2023-03-19T09:20:39;100704.09;;;22.11;42.35
38191;BME280;25191;47.510;19.124;2023-03-19T09:30:39;100701.22;;;22.14;42.78
38191;BME280;25191;47.510;19.124;2023-03-19T09:40:46;100689.44;;;22.18;42.83
38191;BME280;25191;47.510;19.124;2023-03-19T09:50:47;100690.91;;;22.22;42.62
38191;BME280;25191;47.510;19.124;2023-03-19T10:00:50;100681.78;;;22.26;42.66
38191;BME280;25191;47.510;19.124;2023-03-19T10:21:24;100669.47;;;22.38;43.12
38191;BME280;25191;47.510;19.124;2023-03-19T10:31:39;100659.53;;;22.42;42.97
38191;BME280;25191;47.510;19.124;2023-03-19T10:41:57;100645.97;;;22.46;43.13
38191;BME280;25191;47.510;19.124;2023-03-19T10:52:00;100632.03;;;22.55;43.09
38191;BME280;25191;47.510;19.124;2023-03-19T11:02:13;100620.16;;;22.61;43.23
38191;BME280;25191;47.510;19.124;2023-03-19T11:12:24;100602.88;;;22.68;42.79
38191;BME280;25191;47.510;19.124;2023-03-19T11:22:31;100582.00;;;22.77;42.90
38191;BME280;25191;47.510;19.124;2023-03-19T11:32:56;100568.03;;;22.86;42.95
38191;BME280;25191;47.510;19.124;2023-03-19T12:44:46;100470.84;;;23.43;42.52
38191;BME280;25191;47.510;19.124;2023-03-19T12:54:55;100456.28;;;23.49;42.11
38191;BME280;25191;47.510;19.124;2023-03-19T13:25:32;100409.03;;;23.65;41.78
38191;BME280;25191;47.510;19.124;2023-03-19T13:35:38;100405.13;;;23.60;41.51
38191;BME280;25191;47.510;19.124;2023-03-19T13:45:40;100397.47;;;23.57;40.85
38191;BME280;25191;47.510;19.124;2023-03-19T13:55:50;100369.78;;;23.51;40.58
38191;BME280;25191;47.510;19.124;2023-03-19T14:05:54;100367.38;;;23.38;39.48
38191;BME280;25191;47.510;19.124;2023-03-19T14:16:02;100361.81;;;23.41;40.19
38191;BME280;25191;47.510;19.124;2023-03-19T14:26:09;100376.06;;;22.98;29.00
38191;BME280;25191;47.510;19.124;2023-03-19T14:36:14;100358.31;;;22.58;25.74
38191;BME280;25191;47.510;19.124;2023-03-19T14:56:31;100356.50;;;22.79;29.94
38191;BME280;25191;47.510;19.124;2023-03-19T15:06:35;100355.94;;;23.07;33.79
38191;BME280;25191;47.510;19.124;2023-03-19T15:27:01;100356.50;;;23.31;35.67
38191;BME280;25191;47.510;19.124;2023-03-19T15:37:14;100363.72;;;23.29;36.77
38191;BME280;25191;47.510;19.124;2023-03-19T15:47:22;100354.41;;;23.35;37.15
38191;BME280;25191;47.510;19.124;2023-03-19T15:57:25;100371.13;;;23.36;39.79
38191;BME280;25191;47.510;19.124;2023-03-19T16:17:33;100382.06;;;23.31;40.92
38191;BME280;25191;47.510;19.124;2023-03-19T16:27:37;100379.28;;;23.32;41.40
38191;BME280;25191;47.510;19.124;2023-03-19T16:47:43;100396.97;;;23.32;42.04
38191;BME280;25191;47.510;19.124;2023-03-19T16:57:55;100412.66;;;23.33;42.72
38191;BME280;25191;47.510;19.124;2023-03-19T17:07:56;100408.34;;;23.32;43.16
38191;BME280;25191;47.510;19.124;2023-03-19T17:17:59;100417.38;;;23.30;43.30
38191;BME280;25191;47.510;19.124;2023-03-19T17:28:01;100421.69;;;23.31;43.64
38191;BME280;25191;47.510;19.124;2023-03-19T17:38:02;100417.28;;;23.31;44.06
38191;BME280;25191;47.510;19.124;2023-03-19T17:48:03;100425.88;;;23.33;44.44
38191;BME280;25191;47.510;19.124;2023-03-19T17:58:14;100425.69;;;23.25;44.27
38191;BME280;25191;47.510;19.124;2023-03-19T18:08:18;100426.41;;;23.27;44.51
38191;BME280;25191;47.510;19.124;2023-03-19T18:18:29;100412.50;;;23.25;44.82
38191;BME280;25191;47.510;19.124;2023-03-19T18:28:30;100422.22;;;23.25;44.58
38191;BME280;25191;47.510;19.124;2023-03-19T18:38:31;100414.31;;;23.25;44.84
38191;BME280;25191;47.510;19.124;2023-03-19T18:48:32;100415.41;;;23.22;44.43
38191;BME280;25191;47.510;19.124;2023-03-19T18:58:34;100422.38;;;23.23;44.95
38191;BME280;25191;47.510;19.124;2023-03-19T19:08:35;100420.41;;;23.25;46.49
38191;BME280;25191;47.510;19.124;2023-03-19T19:18:36;100430.59;;;23.30;49.51
38191;BME280;25191;47.510;19.124;2023-03-19T19:28:38;100430.34;;;23.33;51.83
38191;BME280;25191;47.510;19.124;2023-03-19T19:38:40;100444.25;;;23.35;53.57
38191;BME280;25191;47.510;19.124;2023-03-19T19:48:41;100442.44;;;23.36;55.57
38191;BME280;25191;47.510;19.124;2023-03-19T19:58:43;100443.16;;;23.38;56.91
38191;BME280;25191;47.510;19.124;2023-03-19T20:08:46;100444.47;;;23.22;45.73
38191;BME280;25191;47.510;19.124;2023-03-19T20:18:51;100439.25;;;23.11;43.89
38191;BME280;25191;47.510;19.124;2023-03-19T20:28:54;100438.31;;;23.00;42.80
38191;BME280;25191;47.510;19.124;2023-03-19T20:38:56;100435.81;;;22.99;47.01
38191;BME280;25191;47.510;19.124;2023-03-19T20:48:58;100442.91;;;22.98;47.91
38191;BME280;25191;47.510;19.124;2023-03-19T20:59:01;100435.09;;;22.97;49.08
38191;BME280;25191;47.510;19.124;2023-03-19T21:09:03;100428.44;;;22.93;49.31
38191;BME280;25191;47.510;19.124;2023-03-19T21:19:04;100432.75;;;22.94;49.17
38191;BME280;25191;47.510;19.124;2023-03-19T21:29:10;100431.44;;;22.88;49.59
38191;BME280;25191;47.510;19.124;2023-03-19T21:39:13;100433.25;;;22.88;49.36
38191;BME280;25191;47.510;19.124;2023-03-19T21:49:14;100423.00;;;22.73;49.40
38191;BME280;25191;47.510;19.124;2023-03-19T21:59:21;100425.91;;;22.70;49.04
38191;BME280;25191;47.510;19.124;2023-03-19T22:09:22;100410.44;;;22.65;49.56
38191;BME280;25191;47.510;19.124;2023-03-19T22:19:23;100406.38;;;22.61;49.13
38191;BME280;25191;47.510;19.124;2023-03-19T22:29:25;100401.34;;;22.58;49.36
38191;BME280;25191;47.510;19.124;2023-03-19T22:39:25;100387.59;;;22.54;49.16
38191;BME280;25191;47.510;19.124;2023-03-19T22:49:26;100394.81;;;22.52;49.46
38191;BME280;25191;47.510;19.124;2023-03-19T22:59:27;100389.78;;;22.49;49.18
38191;BME280;25191;47.510;19.124;2023-03-19T23:09:33;100389.09;;;22.47;49.09
38191;BME280;25191;47.510;19.124;2023-03-19T23:19:36;100374.31;;;22.45;49.21
38191;BME280;25191;47.510;19.124;2023-03-19T23:29:41;100377.81;;;22.45;49.21
38191;BME280;25191;47.510;19.124;2023-03-19T23:39:42;100371.13;;;22.41;48.91
38191;BME280;25191;47.510;19.124;2023-03-19T23:49:43;100366.19;;;22.36;49.09
38191;BME280;25191;47.510;19.124;2023-03-19T23:59:52;100363.66;;;22.35;48.58
